sensor_id;sensor_type;location;lat;lon;timestamp;P1;durP1;ratioP1;P2;durP2;ratioP2
83115;SDS011;72996;40.206;44.498;2024-02-15T00:01:41;28.08;;;14.70;;
83115;SDS011;72996;40.206;44.498;2024-02-15T00:04:07;25.55;;;14.07;;
83115;SDS011;72996;40.206;44.498;2024-02-15T00:06:33;26.80;;;15.02;;
83115;SDS011;72996;40.206;44.498;2024-02-15T00:08:59;25.90;;;15.20;;
83115;SDS011;72996;40.206;44.498;2024-02-15T00:11:25;26.05;;;14.93;;
83115;SDS011;72996;40.206;44.498;2024-02-15T00:13:50;25.92;;;14.00;;
83115;SDS011;72996;40.206;44.498;2024-02-15T00:16:16;28.08;;;16.13;;
83115;SDS011;72996;40.206;44.498;2024-02-15T00:18:42;28.45;;;14.57;;
83115;SDS011;72996;40.206;44.498;2024-02-15T00:21:07;33.92;;;18.25;;
83115;SDS011;72996;40.206;44.498;2024-02-15T00:23:33;33.10;;;18.02;;
83115;SDS011;72996;40.206;44.498;2024-02-15T00:25:58;30.67;;;18.60;;
83115;SDS011;72996;40.206;44.498;2024-02-15T00:28:24;30.17;;;17.27;;
83115;SDS011;72996;40.206;44.498;2024-02-15T00:30:52;27.30;;;15.95;;
83115;SDS011;72996;40.206;44.498;2024-02-15T00:33:18;28.70;;;17.13;;
83115;SDS011;72996;40.206;44.498;2024-02-15T00:35:43;30.42;;;16.60;;
83115;SDS011;72996;40.206;44.498;2024-02-15T00:38:09;27.13;;;16.63;;
83115;SDS011;72996;40.206;44.498;2024-02-15T00:40:35;31.95;;;18.88;;
83115;SDS011;72996;40.206;44.498;2024-02-15T00:43:01;31.67;;;16.45;;
83115;SDS011;72996;40.206;44.498;2024-02-15T00:45:26;31.10;;;16.95;;
83115;SDS011;72996;40.206;44.498;2024-02-15T00:47:52;29.83;;;15.45;;
83115;SDS011;72996;40.206;44.498;2024-02-15T00:50:19;27.73;;;15.90;;
83115;SDS011;72996;40.206;44.498;2024-02-15T00:52:44;30.83;;;16.40;;
83115;SDS011;72996;40.206;44.498;2024-02-15T00:55:10;33.10;;;17.35;;
83115;SDS011;72996;40.206;44.498;2024-02-15T00:57:36;30.70;;;16.52;;
83115;SDS011;72996;40.206;44.498;2024-02-15T01:00:02;29.27;;;17.48;;
83115;SDS011;72996;40.206;44.498;2024-02-15T01:02:31;28.02;;;17.15;;
83115;SDS011;72996;40.206;44.498;2024-02-15T01:04:57;31.30;;;17.95;;
83115;SDS011;72996;40.206;44.498;2024-02-15T01:07:24;34.00;;;17.17;;
83115;SDS011;72996;40.206;44.498;2024-02-15T01:09:53;29.95;;;17.02;;
83115;SDS011;72996;40.206;44.498;2024-02-15T01:12:19;29.83;;;17.20;;
83115;SDS011;72996;40.206;44.498;2024-02-15T01:14:46;31.08;;;17.25;;
83115;SDS011;72996;40.206;44.498;2024-02-15T01:17:12;31.63;;;16.77;;
83115;SDS011;72996;40.206;44.498;2024-02-15T01:19:37;30.77;;;16.90;;
83115;SDS011;72996;40.206;44.498;2024-02-15T01:22:03;30.42;;;16.90;;
83115;SDS011;72996;40.206;44.498;2024-02-15T01:24:29;31.63;;;16.23;;
83115;SDS011;72996;40.206;44.498;2024-02-15T01:26:55;32.15;;;17.17;;
83115;SDS011;72996;40.206;44.498;2024-02-15T01:29:21;34.35;;;18.67;;
83115;SDS011;72996;40.206;44.498;2024-02-15T01:31:46;28.58;;;17.08;;
83115;SDS011;72996;40.206;44.498;2024-02-15T01:34:12;31.42;;;17.20;;
83115;SDS011;72996;40.206;44.498;2024-02-15T01:36:38;32.97;;;17.42;;
83115;SDS011;72996;40.206;44.498;2024-02-15T01:39:04;29.63;;;17.73;;
83115;SDS011;72996;40.206;44.498;2024-02-15T01:41:29;27.13;;;16.23;;
83115;SDS011;72996;40.206;44.498;2024-02-15T01:43:55;26.92;;;15.13;;
83115;SDS011;72996;40.206;44.498;2024-02-15T01:46:21;29.20;;;15.85;;
83115;SDS011;72996;40.206;44.498;2024-02-15T01:48:47;32.05;;;16.80;;
83115;SDS011;72996;40.206;44.498;2024-02-15T01:51:13;30.55;;;16.90;;
83115;SDS011;72996;40.206;44.498;2024-02-15T01:56:07;30.63;;;16.23;;
83115;SDS011;72996;40.206;44.498;2024-02-15T01:58:33;32.13;;;16.92;;
83115;SDS011;72996;40.206;44.498;2024-02-15T02:01:00;31.05;;;15.60;;
83115;SDS011;72996;40.206;44.498;2024-02-15T02:03:29;32.65;;;16.58;;
83115;SDS011;72996;40.206;44.498;2024-02-15T02:05:55;27.45;;;16.20;;
83115;SDS011;72996;40.206;44.498;2024-02-15T02:08:21;32.17;;;16.27;;
83115;SDS011;72996;40.206;44.498;2024-02-15T02:10:47;19.23;;;9.80;;
83115;SDS011;72996;40.206;44.498;2024-02-15T02:13:13;13.98;;;8.10;;
83115;SDS011;72996;40.206;44.498;2024-02-15T02:15:38;16.50;;;8.77;;
83115;SDS011;72996;40.206;44.498;2024-02-15T02:18:04;14.73;;;8.23;;
83115;SDS011;72996;40.206;44.498;2024-02-15T02:20:31;13.63;;;7.72;;
83115;SDS011;72996;40.206;44.498;2024-02-15T02:23:15;15.05;;;8.13;;
83115;SDS011;72996;40.206;44.498;2024-02-15T02:25:44;18.05;;;8.18;;
83115;SDS011;72996;40.206;44.498;2024-02-15T02:28:11;13.82;;;8.23;;
83115;SDS011;72996;40.206;44.498;2024-02-15T02:30:38;14.95;;;8.52;;
83115;SDS011;72996;40.206;44.498;2024-02-15T02:33:10;15.98;;;8.80;;
83115;SDS011;72996;40.206;44.498;2024-02-15T02:35:43;14.55;;;8.50;;
83115;SDS011;72996;40.206;44.498;2024-02-15T02:38:09;13.52;;;8.57;;
83115;SDS011;72996;40.206;44.498;2024-02-15T02:40:35;14.45;;;8.48;;
83115;SDS011;72996;40.206;44.498;2024-02-15T02:43:01;13.68;;;8.77;;
83115;SDS011;72996;40.206;44.498;2024-02-15T02:45:27;15.10;;;7.85;;
83115;SDS011;72996;40.206;44.498;2024-02-15T02:47:52;17.63;;;8.52;;
83115;SDS011;72996;40.206;44.498;2024-02-15T02:50:19;13.88;;;8.00;;
83115;SDS011;72996;40.206;44.498;2024-02-15T02:52:45;14.77;;;8.70;;
83115;SDS011;72996;40.206;44.498;2024-02-15T02:55:13;15.23;;;8.25;;
83115;SDS011;72996;40.206;44.498;2024-02-15T02:57:40;12.27;;;7.90;;
83115;SDS011;72996;40.206;44.498;2024-02-15T03:00:10;15.10;;;8.52;;
83115;SDS011;72996;40.206;44.498;2024-02-15T03:02:41;12.75;;;8.80;;
83115;SDS011;72996;40.206;44.498;2024-02-15T03:05:08;13.23;;;8.20;;
83115;SDS011;72996;40.206;44.498;2024-02-15T03:10:02;14.00;;;8.57;;
83115;SDS011;72996;40.206;44.498;2024-02-15T03:12:37;12.13;;;8.02;;
83115;SDS011;72996;40.206;44.498;2024-02-15T03:15:03;19.20;;;9.50;;
83115;SDS011;72996;40.206;44.498;2024-02-15T03:17:29;14.25;;;8.98;;
83115;SDS011;72996;40.206;44.498;2024-02-15T03:19:58;16.35;;;9.60;;
83115;SDS011;72996;40.206;44.498;2024-02-15T03:22:24;14.52;;;8.93;;
83115;SDS011;72996;40.206;44.498;2024-02-15T03:24:51;14.30;;;8.75;;
83115;SDS011;72996;40.206;44.498;2024-02-15T03:27:18;13.48;;;8.20;;
83115;SDS011;72996;40.206;44.498;2024-02-15T03:29:48;12.82;;;7.68;;
83115;SDS011;72996;40.206;44.498;2024-02-15T03:32:13;13.50;;;8.00;;
83115;SDS011;72996;40.206;44.498;2024-02-15T03:34:39;16.17;;;9.02;;
83115;SDS011;72996;40.206;44.498;2024-02-15T03:37:05;14.77;;;8.32;;
83115;SDS011;72996;40.206;44.498;2024-02-15T03:39:30;11.43;;;7.22;;
83115;SDS011;72996;40.206;44.498;2024-02-15T03:41:58;14.05;;;8.27;;
83115;SDS011;72996;40.206;44.498;2024-02-15T03:44:23;12.63;;;8.10;;
83115;SDS011;72996;40.206;44.498;2024-02-15T03:46:51;17.35;;;10.23;;
83115;SDS011;72996;40.206;44.498;2024-02-15T03:49:18;16.50;;;10.23;;
83115;SDS011;72996;40.206;44.498;2024-02-15T03:51:44;24.20;;;12.30;;
83115;SDS011;72996;40.206;44.498;2024-02-15T03:54:10;19.58;;;12.00;;
83115;SDS011;72996;40.206;44.498;2024-02-15T03:56:36;23.83;;;12.82;;
83115;SDS011;72996;40.206;44.498;2024-02-15T03:59:11;22.08;;;12.70;;
83115;SDS011;72996;40.206;44.498;2024-02-15T04:01:38;27.25;;;15.25;;
83115;SDS011;72996;40.206;44.498;2024-02-15T04:04:04;26.13;;;14.63;;
83115;SDS011;72996;40.206;44.498;2024-02-15T04:06:30;29.50;;;15.15;;
83115;SDS011;72996;40.206;44.498;2024-02-15T04:08:58;31.98;;;17.00;;
83115;SDS011;72996;40.206;44.498;2024-02-15T04:11:25;31.90;;;17.10;;
83115;SDS011;72996;40.206;44.498;2024-02-15T04:13:50;30.83;;;15.85;;
83115;SDS011;72996;40.206;44.498;2024-02-15T04:16:16;28.55;;;15.93;;
83115;SDS011;72996;40.206;44.498;2024-02-15T04:18:43;28.73;;;16.17;;
83115;SDS011;72996;40.206;44.498;2024-02-15T04:21:10;28.83;;;15.68;;
83115;SDS011;72996;40.206;44.498;2024-02-15T04:23:36;30.40;;;15.80;;
83115;SDS011;72996;40.206;44.498;2024-02-15T04:26:02;27.75;;;15.00;;
83115;SDS011;72996;40.206;44.498;2024-02-15T04:28:28;24.10;;;14.20;;
83115;SDS011;72996;40.206;44.498;2024-02-15T04:30:54;31.67;;;15.45;;
83115;SDS011;72996;40.206;44.498;2024-02-15T04:33:20;29.60;;;15.55;;
83115;SDS011;72996;40.206;44.498;2024-02-15T04:35:46;29.65;;;15.77;;
83115;SDS011;72996;40.206;44.498;2024-02-15T04:38:13;29.10;;;14.23;;
83115;SDS011;72996;40.206;44.498;2024-02-15T04:40:40;30.08;;;15.32;;
83115;SDS011;72996;40.206;44.498;2024-02-15T04:43:05;26.52;;;15.25;;
83115;SDS011;72996;40.206;44.498;2024-02-15T04:45:31;23.73;;;13.50;;
83115;SDS011;72996;40.206;44.498;2024-02-15T04:47:57;29.30;;;15.02;;
83115;SDS011;72996;40.206;44.498;2024-02-15T04:50:27;22.98;;;12.55;;
83115;SDS011;72996;40.206;44.498;2024-02-15T04:52:53;20.05;;;11.50;;
83115;SDS011;72996;40.206;44.498;2024-02-15T04:55:19;25.27;;;13.65;;
83115;SDS011;72996;40.206;44.498;2024-02-15T04:57:44;25.27;;;13.70;;
83115;SDS011;72996;40.206;44.498;2024-02-15T05:00:14;21.10;;;12.02;;
83115;SDS011;72996;40.206;44.498;2024-02-15T05:02:40;26.27;;;14.10;;
83115;SDS011;72996;40.206;44.498;2024-02-15T05:05:07;24.58;;;13.63;;
83115;SDS011;72996;40.206;44.498;2024-02-15T05:07:34;25.00;;;13.73;;
83115;SDS011;72996;40.206;44.498;2024-02-15T05:10:03;24.60;;;12.68;;
83115;SDS011;72996;40.206;44.498;2024-02-15T05:12:31;25.48;;;14.25;;
83115;SDS011;72996;40.206;44.498;2024-02-15T05:14:58;24.98;;;13.27;;
83115;SDS011;72996;40.206;44.498;2024-02-15T05:17:24;26.75;;;14.38;;
83115;SDS011;72996;40.206;44.498;2024-02-15T05:19:50;22.30;;;12.90;;
83115;SDS011;72996;40.206;44.498;2024-02-15T05:22:15;26.95;;;15.00;;
83115;SDS011;72996;40.206;44.498;2024-02-15T05:24:43;26.30;;;14.70;;
83115;SDS011;72996;40.206;44.498;2024-02-15T05:27:09;23.38;;;14.20;;
83115;SDS011;72996;40.206;44.498;2024-02-15T05:29:34;24.55;;;14.35;;
83115;SDS011;72996;40.206;44.498;2024-02-15T05:32:01;27.63;;;15.65;;
83115;SDS011;72996;40.206;44.498;2024-02-15T05:34:27;29.30;;;15.82;;
83115;SDS011;72996;40.206;44.498;2024-02-15T05:36:54;27.90;;;16.08;;
83115;SDS011;72996;40.206;44.498;2024-02-15T05:39:20;29.92;;;17.60;;
83115;SDS011;72996;40.206;44.498;2024-02-15T05:41:47;27.50;;;16.45;;
83115;SDS011;72996;40.206;44.498;2024-02-15T05:44:13;30.77;;;16.65;;
83115;SDS011;72996;40.206;44.498;2024-02-15T05:46:44;29.10;;;16.58;;
83115;SDS011;72996;40.206;44.498;2024-02-15T05:49:10;28.52;;;15.82;;
83115;SDS011;72996;40.206;44.498;2024-02-15T05:51:40;26.70;;;14.52;;
83115;SDS011;72996;40.206;44.498;2024-02-15T05:54:06;28.15;;;15.23;;
83115;SDS011;72996;40.206;44.498;2024-02-15T05:56:32;23.90;;;13.43;;
83115;SDS011;72996;40.206;44.498;2024-02-15T05:58:58;25.15;;;13.30;;
83115;SDS011;72996;40.206;44.498;2024-02-15T06:01:23;23.65;;;13.82;;
83115;SDS011;72996;40.206;44.498;2024-02-15T06:03:49;20.52;;;12.07;;
83115;SDS011;72996;40.206;44.498;2024-02-15T06:06:19;20.77;;;11.23;;
83115;SDS011;72996;40.206;44.498;2024-02-15T06:08:46;17.95;;;10.50;;
83115;SDS011;72996;40.206;44.498;2024-02-15T06:11:12;17.77;;;10.05;;
83115;SDS011;72996;40.206;44.498;2024-02-15T06:13:39;17.90;;;10.90;;
83115;SDS011;72996;40.206;44.498;2024-02-15T06:16:06;19.83;;;10.57;;
83115;SDS011;72996;40.206;44.498;2024-02-15T06:18:34;17.83;;;10.82;;
83115;SDS011;72996;40.206;44.498;2024-02-15T06:21:00;20.23;;;11.60;;
83115;SDS011;72996;40.206;44.498;2024-02-15T06:23:27;20.52;;;12.40;;
83115;SDS011;72996;40.206;44.498;2024-02-15T06:25:53;22.23;;;12.93;;
83115;SDS011;72996;40.206;44.498;2024-02-15T06:28:21;22.25;;;12.85;;
83115;SDS011;72996;40.206;44.498;2024-02-15T06:31:06;18.45;;;11.35;;
83115;SDS011;72996;40.206;44.498;2024-02-15T06:33:51;15.32;;;8.85;;
83115;SDS011;72996;40.206;44.498;2024-02-15T06:36:39;16.00;;;8.60;;
83115;SDS011;72996;40.206;44.498;2024-02-15T06:39:23;13.50;;;8.30;;
83115;SDS011;72996;40.206;44.498;2024-02-15T06:42:08;14.57;;;8.68;;
83115;SDS011;72996;40.206;44.498;2024-02-15T06:44:36;14.48;;;8.48;;
83115;SDS011;72996;40.206;44.498;2024-02-15T06:47:03;15.95;;;9.15;;
83115;SDS011;72996;40.206;44.498;2024-02-15T06:49:29;14.40;;;8.05;;
83115;SDS011;72996;40.206;44.498;2024-02-15T06:51:55;14.68;;;8.85;;
83115;SDS011;72996;40.206;44.498;2024-02-15T06:54:21;13.95;;;7.40;;
83115;SDS011;72996;40.206;44.498;2024-02-15T06:56:50;14.48;;;8.45;;
83115;SDS011;72996;40.206;44.498;2024-02-15T06:59:19;14.10;;;8.25;;
83115;SDS011;72996;40.206;44.498;2024-02-15T07:01:48;13.45;;;7.43;;
83115;SDS011;72996;40.206;44.498;2024-02-15T07:04:18;8.85;;;5.55;;
83115;SDS011;72996;40.206;44.498;2024-02-15T07:06:44;11.13;;;5.35;;
83115;SDS011;72996;40.206;44.498;2024-02-15T07:09:13;10.18;;;6.00;;
83115;SDS011;72996;40.206;44.498;2024-02-15T07:14:06;9.10;;;5.13;;
83115;SDS011;72996;40.206;44.498;2024-02-15T07:16:32;10.25;;;5.68;;
83115;SDS011;72996;40.206;44.498;2024-02-15T07:18:59;9.82;;;5.57;;
83115;SDS011;72996;40.206;44.498;2024-02-15T07:21:25;8.20;;;5.13;;
83115;SDS011;72996;40.206;44.498;2024-02-15T07:23:54;9.73;;;6.13;;
83115;SDS011;72996;40.206;44.498;2024-02-15T07:26:23;14.43;;;7.25;;
83115;SDS011;72996;40.206;44.498;2024-02-15T07:28:53;8.23;;;5.30;;
83115;SDS011;72996;40.206;44.498;2024-02-15T07:31:19;11.65;;;6.50;;
83115;SDS011;72996;40.206;44.498;2024-02-15T07:33:49;10.45;;;6.10;;
83115;SDS011;72996;40.206;44.498;2024-02-15T07:36:22;14.93;;;6.82;;
83115;SDS011;72996;40.206;44.498;2024-02-15T07:38:49;11.15;;;6.25;;
83115;SDS011;72996;40.206;44.498;2024-02-15T07:41:16;9.35;;;5.80;;
83115;SDS011;72996;40.206;44.498;2024-02-15T07:43:43;7.95;;;4.65;;
83115;SDS011;72996;40.206;44.498;2024-02-15T07:46:12;12.05;;;5.18;;
83115;SDS011;72996;40.206;44.498;2024-02-15T07:48:39;11.35;;;4.65;;
83115;SDS011;72996;40.206;44.498;2024-02-15T07:51:10;8.00;;;5.10;;
83115;SDS011;72996;40.206;44.498;2024-02-15T07:53:36;14.63;;;7.85;;
83115;SDS011;72996;40.206;44.498;2024-02-15T07:56:02;9.40;;;5.60;;
83115;SDS011;72996;40.206;44.498;2024-02-15T07:58:27;10.68;;;5.53;;
83115;SDS011;72996;40.206;44.498;2024-02-15T08:00:53;9.95;;;5.65;;
83115;SDS011;72996;40.206;44.498;2024-02-15T08:03:19;13.23;;;7.40;;
83115;SDS011;72996;40.206;44.498;2024-02-15T08:05:45;9.00;;;5.22;;
83115;SDS011;72996;40.206;44.498;2024-02-15T08:08:11;10.23;;;5.60;;
83115;SDS011;72996;40.206;44.498;2024-02-15T08:10:36;12.80;;;6.45;;
83115;SDS011;72996;40.206;44.498;2024-02-15T08:13:03;17.15;;;9.52;;
83115;SDS011;72996;40.206;44.498;2024-02-15T08:15:28;8.77;;;5.55;;
83115;SDS011;72996;40.206;44.498;2024-02-15T08:17:54;9.20;;;5.60;;
83115;SDS011;72996;40.206;44.498;2024-02-15T08:20:48;9.68;;;6.22;;
83115;SDS011;72996;40.206;44.498;2024-02-15T08:23:14;11.00;;;6.10;;
83115;SDS011;72996;40.206;44.498;2024-02-15T08:25:39;9.75;;;5.43;;
83115;SDS011;72996;40.206;44.498;2024-02-15T08:28:06;8.93;;;5.63;;
83115;SDS011;72996;40.206;44.498;2024-02-15T08:30:32;11.75;;;5.57;;
83115;SDS011;72996;40.206;44.498;2024-02-15T08:32:58;8.48;;;5.20;;
83115;SDS011;72996;40.206;44.498;2024-02-15T08:35:24;11.55;;;5.50;;
83115;SDS011;72996;40.206;44.498;2024-02-15T08:37:50;10.63;;;5.78;;
83115;SDS011;72996;40.206;44.498;2024-02-15T08:40:17;8.90;;;5.93;;
83115;SDS011;72996;40.206;44.498;2024-02-15T08:42:49;8.98;;;5.72;;
83115;SDS011;72996;40.206;44.498;2024-02-15T08:45:15;10.25;;;6.22;;
83115;SDS011;72996;40.206;44.498;2024-02-15T08:47:41;7.93;;;5.10;;
83115;SDS011;72996;40.206;44.498;2024-02-15T08:50:08;9.85;;;6.18;;
83115;SDS011;72996;40.206;44.498;2024-02-15T08:52:35;8.60;;;6.22;;
83115;SDS011;72996;40.206;44.498;2024-02-15T08:55:07;10.77;;;5.40;;
83115;SDS011;72996;40.206;44.498;2024-02-15T08:57:35;8.00;;;5.65;;
83115;SDS011;72996;40.206;44.498;2024-02-15T09:00:04;12.13;;;6.45;;
83115;SDS011;72996;40.206;44.498;2024-02-15T09:02:38;8.55;;;6.30;;
83115;SDS011;72996;40.206;44.498;2024-02-15T09:05:05;14.40;;;7.43;;
83115;SDS011;72996;40.206;44.498;2024-02-15T09:07:31;7.85;;;6.05;;
83115;SDS011;72996;40.206;44.498;2024-02-15T09:09:57;10.00;;;6.13;;
83115;SDS011;72996;40.206;44.498;2024-02-15T09:12:22;10.88;;;6.65;;
83115;SDS011;72996;40.206;44.498;2024-02-15T09:14:48;10.48;;;6.25;;
83115;SDS011;72996;40.206;44.498;2024-02-15T09:17:14;12.75;;;6.68;;
83115;SDS011;72996;40.206;44.498;2024-02-15T09:19:39;10.48;;;6.82;;
83115;SDS011;72996;40.206;44.498;2024-02-15T09:22:06;9.00;;;6.80;;
83115;SDS011;72996;40.206;44.498;2024-02-15T09:24:32;10.43;;;6.10;;
83115;SDS011;72996;40.206;44.498;2024-02-15T09:27:01;10.38;;;7.50;;
83115;SDS011;72996;40.206;44.498;2024-02-15T09:29:30;12.02;;;7.65;;
83115;SDS011;72996;40.206;44.498;2024-02-15T09:31:58;10.57;;;7.93;;
83115;SDS011;72996;40.206;44.498;2024-02-15T09:34:24;10.73;;;6.30;;
83115;SDS011;72996;40.206;44.498;2024-02-15T09:36:50;10.18;;;6.47;;
83115;SDS011;72996;40.206;44.498;2024-02-15T09:39:15;12.15;;;6.13;;
83115;SDS011;72996;40.206;44.498;2024-02-15T09:41:43;9.73;;;6.20;;
83115;SDS011;72996;40.206;44.498;2024-02-15T09:44:08;13.18;;;6.70;;
83115;SDS011;72996;40.206;44.498;2024-02-15T09:46:35;8.13;;;5.82;;
83115;SDS011;72996;40.206;44.498;2024-02-15T09:49:03;8.63;;;6.97;;
83115;SDS011;72996;40.206;44.498;2024-02-15T09:51:29;12.15;;;7.22;;
83115;SDS011;72996;40.206;44.498;2024-02-15T09:53:58;15.93;;;7.47;;
83115;SDS011;72996;40.206;44.498;2024-02-15T09:56:26;8.70;;;6.32;;
83115;SDS011;72996;40.206;44.498;2024-02-15T09:58:54;9.93;;;5.43;;
83115;SDS011;72996;40.206;44.498;2024-02-15T10:01:20;11.68;;;7.15;;
83115;SDS011;72996;40.206;44.498;2024-02-15T10:03:50;12.95;;;4.88;;
83115;SDS011;72996;40.206;44.498;2024-02-15T10:06:19;13.98;;;6.60;;
83115;SDS011;72996;40.206;44.498;2024-02-15T10:08:45;10.23;;;6.03;;
83115;SDS011;72996;40.206;44.498;2024-02-15T10:11:12;17.73;;;6.28;;
83115;SDS011;72996;40.206;44.498;2024-02-15T10:13:38;8.65;;;4.57;;
83115;SDS011;72996;40.206;44.498;2024-02-15T10:18:44;7.65;;;4.70;;
83115;SDS011;72996;40.206;44.498;2024-02-15T10:21:33;7.00;;;4.70;;
83115;SDS011;72996;40.206;44.498;2024-02-15T10:24:06;10.00;;;5.53;;
83115;SDS011;72996;40.206;44.498;2024-02-15T10:26:35;8.27;;;5.30;;
83115;SDS011;72996;40.206;44.498;2024-02-15T10:29:11;9.68;;;4.93;;
83115;SDS011;72996;40.206;44.498;2024-02-15T10:31:40;12.02;;;4.93;;
83115;SDS011;72996;40.206;44.498;2024-02-15T10:34:16;5.88;;;3.65;;
83115;SDS011;72996;40.206;44.498;2024-02-15T10:36:44;7.65;;;3.20;;
83115;SDS011;72996;40.206;44.498;2024-02-15T10:41:49;9.23;;;3.22;;
83115;SDS011;72996;40.206;44.498;2024-02-15T10:44:16;7.40;;;2.80;;
83115;SDS011;72996;40.206;44.498;2024-02-15T10:46:50;8.63;;;2.72;;
83115;SDS011;72996;40.206;44.498;2024-02-15T10:49:20;4.72;;;2.30;;
83115;SDS011;72996;40.206;44.498;2024-02-15T10:52:00;7.72;;;2.85;;
83115;SDS011;72996;40.206;44.498;2024-02-15T10:54:38;6.13;;;2.80;;
83115;SDS011;72996;40.206;44.498;2024-02-15T10:57:08;7.13;;;2.92;;
83115;SDS011;72996;40.206;44.498;2024-02-15T10:59:35;5.63;;;2.47;;
83115;SDS011;72996;40.206;44.498;2024-02-15T11:04:53;7.88;;;2.67;;
83115;SDS011;72996;40.206;44.498;2024-02-15T11:07:25;4.30;;;2.70;;
83115;SDS011;72996;40.206;44.498;2024-02-15T11:09:54;6.63;;;2.70;;
83115;SDS011;72996;40.206;44.498;2024-02-15T11:12:24;6.90;;;2.75;;
83115;SDS011;72996;40.206;44.498;2024-02-15T11:14:51;4.65;;;2.63;;
83115;SDS011;72996;40.206;44.498;2024-02-15T11:20:02;8.93;;;3.17;;
83115;SDS011;72996;40.206;44.498;2024-02-15T11:22:35;6.85;;;2.97;;
83115;SDS011;72996;40.206;44.498;2024-02-15T11:25:07;6.43;;;3.38;;
83115;SDS011;72996;40.206;44.498;2024-02-15T11:27:37;5.00;;;3.28;;
83115;SDS011;72996;40.206;44.498;2024-02-15T11:30:04;5.72;;;2.80;;
83115;SDS011;72996;40.206;44.498;2024-02-15T11:35:22;7.07;;;3.38;;
83115;SDS011;72996;40.206;44.498;2024-02-15T11:37:49;5.30;;;2.63;;
83115;SDS011;72996;40.206;44.498;2024-02-15T11:40:15;6.40;;;3.00;;
83115;SDS011;72996;40.206;44.498;2024-02-15T11:42:42;6.57;;;2.65;;
83115;SDS011;72996;40.206;44.498;2024-02-15T11:45:08;5.07;;;2.40;;
83115;SDS011;72996;40.206;44.498;2024-02-15T11:47:38;4.60;;;2.63;;
83115;SDS011;72996;40.206;44.498;2024-02-15T11:50:08;6.43;;;2.55;;
83115;SDS011;72996;40.206;44.498;2024-02-15T11:52:40;6.30;;;2.85;;
83115;SDS011;72996;40.206;44.498;2024-02-15T11:55:08;4.88;;;2.53;;
83115;SDS011;72996;40.206;44.498;2024-02-15T11:57:57;6.38;;;2.95;;
83115;SDS011;72996;40.206;44.498;2024-02-15T12:00:46;5.38;;;2.40;;
83115;SDS011;72996;40.206;44.498;2024-02-15T12:03:30;4.95;;;2.60;;
83115;SDS011;72996;40.206;44.498;2024-02-15T12:06:17;5.05;;;2.30;;
83115;SDS011;72996;40.206;44.498;2024-02-15T12:09:02;7.57;;;3.42;;
83115;SDS011;72996;40.206;44.498;2024-02-15T12:11:47;8.43;;;3.33;;
83115;SDS011;72996;40.206;44.498;2024-02-15T12:14:30;5.60;;;3.00;;
83115;SDS011;72996;40.206;44.498;2024-02-15T12:17:15;6.40;;;3.15;;
83115;SDS011;72996;40.206;44.498;2024-02-15T12:20:02;8.05;;;3.10;;
83115;SDS011;72996;40.206;44.498;2024-02-15T12:22:36;8.43;;;4.00;;
83115;SDS011;72996;40.206;44.498;2024-02-15T12:25:07;5.32;;;3.03;;
83115;SDS011;72996;40.206;44.498;2024-02-15T12:27:42;6.93;;;3.30;;
83115;SDS011;72996;40.206;44.498;2024-02-15T12:30:14;6.68;;;3.20;;
83115;SDS011;72996;40.206;44.498;2024-02-15T12:32:45;5.80;;;2.95;;
83115;SDS011;72996;40.206;44.498;2024-02-15T12:35:13;5.78;;;2.92;;
83115;SDS011;72996;40.206;44.498;2024-02-15T12:37:45;7.55;;;3.45;;
83115;SDS011;72996;40.206;44.498;2024-02-15T12:40:17;7.97;;;3.00;;
83115;SDS011;72996;40.206;44.498;2024-02-15T12:42:47;6.85;;;3.10;;
83115;SDS011;72996;40.206;44.498;2024-02-15T12:47:51;6.45;;;3.30;;
83115;SDS011;72996;40.206;44.498;2024-02-15T12:50:18;5.95;;;2.70;;
83115;SDS011;72996;40.206;44.498;2024-02-15T12:52:49;5.78;;;2.13;;
83115;SDS011;72996;40.206;44.498;2024-02-15T12:55:19;7.35;;;2.65;;
83115;SDS011;72996;40.206;44.498;2024-02-15T12:57:49;6.60;;;2.35;;
83115;SDS011;72996;40.206;44.498;2024-02-15T13:00:19;6.60;;;2.63;;
83115;SDS011;72996;40.206;44.498;2024-02-15T13:02:49;5.57;;;2.50;;
83115;SDS011;72996;40.206;44.498;2024-02-15T13:05:16;6.57;;;2.72;;
83115;SDS011;72996;40.206;44.498;2024-02-15T13:07:49;5.40;;;2.70;;
83115;SDS011;72996;40.206;44.498;2024-02-15T13:10:15;7.05;;;2.63;;
83115;SDS011;72996;40.206;44.498;2024-02-15T13:12:42;6.35;;;2.67;;
83115;SDS011;72996;40.206;44.498;2024-02-15T13:15:10;8.50;;;3.55;;
83115;SDS011;72996;40.206;44.498;2024-02-15T13:17:48;6.95;;;3.72;;
83115;SDS011;72996;40.206;44.498;2024-02-15T13:20:16;6.20;;;2.70;;
83115;SDS011;72996;40.206;44.498;2024-02-15T13:22:45;7.00;;;2.80;;
83115;SDS011;72996;40.206;44.498;2024-02-15T13:27:41;7.55;;;2.88;;
83115;SDS011;72996;40.206;44.498;2024-02-15T13:30:08;8.50;;;2.65;;
83115;SDS011;72996;40.206;44.498;2024-02-15T13:32:35;6.10;;;3.03;;
83115;SDS011;72996;40.206;44.498;2024-02-15T13:35:03;10.50;;;3.30;;
83115;SDS011;72996;40.206;44.498;2024-02-15T13:37:38;6.50;;;2.90;;
83115;SDS011;72996;40.206;44.498;2024-02-15T13:40:10;9.15;;;3.95;;
83115;SDS011;72996;40.206;44.498;2024-02-15T13:42:43;8.38;;;3.50;;
83115;SDS011;72996;40.206;44.498;2024-02-15T13:45:17;8.82;;;3.45;;
83115;SDS011;72996;40.206;44.498;2024-02-15T13:47:45;6.65;;;2.90;;
83115;SDS011;72996;40.206;44.498;2024-02-15T13:50:12;9.40;;;3.45;;
83115;SDS011;72996;40.206;44.498;2024-02-15T13:52:40;8.15;;;3.28;;
83115;SDS011;72996;40.206;44.498;2024-02-15T13:55:09;7.80;;;3.63;;
83115;SDS011;72996;40.206;44.498;2024-02-15T13:57:39;10.15;;;3.97;;
83115;SDS011;72996;40.206;44.498;2024-02-15T14:00:09;14.05;;;4.20;;
83115;SDS011;72996;40.206;44.498;2024-02-15T14:02:40;7.25;;;3.70;;
83115;SDS011;72996;40.206;44.498;2024-02-15T14:05:08;7.38;;;3.00;;
83115;SDS011;72996;40.206;44.498;2024-02-15T14:07:37;7.00;;;3.05;;
83115;SDS011;72996;40.206;44.498;2024-02-15T14:10:06;6.20;;;2.88;;
83115;SDS011;72996;40.206;44.498;2024-02-15T14:12:33;7.63;;;3.42;;
83115;SDS011;72996;40.206;44.498;2024-02-15T14:14:59;5.15;;;3.03;;
83115;SDS011;72996;40.206;44.498;2024-02-15T14:17:25;6.70;;;2.92;;
83115;SDS011;72996;40.206;44.498;2024-02-15T14:19:53;5.85;;;3.00;;
83115;SDS011;72996;40.206;44.498;2024-02-15T14:22:18;7.07;;;3.40;;
83115;SDS011;72996;40.206;44.498;2024-02-15T14:24:48;7.28;;;3.25;;
83115;SDS011;72996;40.206;44.498;2024-02-15T14:27:14;7.25;;;3.15;;
83115;SDS011;72996;40.206;44.498;2024-02-15T14:29:40;7.57;;;3.22;;
83115;SDS011;72996;40.206;44.498;2024-02-15T14:32:25;7.90;;;3.17;;
83115;SDS011;72996;40.206;44.498;2024-02-15T14:35:09;6.78;;;2.80;;
83115;SDS011;72996;40.206;44.498;2024-02-15T14:37:36;9.32;;;3.30;;
83115;SDS011;72996;40.206;44.498;2024-02-15T14:40:02;6.78;;;3.10;;
83115;SDS011;72996;40.206;44.498;2024-02-15T14:42:28;8.20;;;3.30;;
83115;SDS011;72996;40.206;44.498;2024-02-15T14:44:54;7.47;;;3.28;;
83115;SDS011;72996;40.206;44.498;2024-02-15T14:47:20;10.65;;;3.80;;
83115;SDS011;72996;40.206;44.498;2024-02-15T14:49:45;6.88;;;4.00;;
83115;SDS011;72996;40.206;44.498;2024-02-15T14:52:11;7.68;;;3.72;;
83115;SDS011;72996;40.206;44.498;2024-02-15T14:54:37;8.68;;;4.78;;